sensor_id;sensor_type;location;lat;lon;timestamp;pressure;altitude;pressure_sealevel;temperature;humidity
17593;BME280;8915;51.760;14.300;2023-10-08T00:02:04;101127.81;;;12.37;91.23
17593;BME280;8915;51.760;14.300;2023-10-08T00:04:32;101122.84;;;12.35;90.94
17593;BME280;8915;51.760;14.300;2023-10-08T00:07:02;101124.88;;;12.30;91.22
17593;BME280;8915;51.760;14.300;2023-10-08T00:09:32;101102.47;;;12.27;90.69
17593;BME280;8915;51.760;14.300;2023-10-08T00:12:01;101114.50;;;12.25;90.49
17593;BME280;8915;51.760;14.300;2023-10-08T00:14:27;101120.31;;;12.18;91.02
17593;BME280;8915;51.760;14.300;2023-10-08T00:16:54;101118.00;;;12.17;91.20
17593;BME280;8915;51.760;14.300;2023-10-08T00:19:20;101117.09;;;12.13;91.02
17593;BME280;8915;51.760;14.300;2023-10-08T00:21:48;101132.66;;;12.14;90.79
17593;BME280;8915;51.760;14.300;2023-10-08T00:24:18;101141.53;;;12.10;91.38
17593;BME280;8915;51.760;14.300;2023-10-08T00:26:52;101145.28;;;12.09;91.23
17593;BME280;8915;51.760;14.300;2023-10-08T00:29:19;101168.66;;;12.07;91.38
17593;BME280;8915;51.760;14.300;2023-10-08T00:31:47;101162.47;;;12.03;91.72
17593;BME280;8915;51.760;14.300;2023-10-08T00:34:15;101158.13;;;11.98;91.36
17593;BME280;8915;51.760;14.300;2023-10-08T00:36:47;101162.50;;;11.94;90.76
17593;BME280;8915;51.760;14.300;2023-10-08T00:39:15;101170.50;;;11.86;91.06
17593;BME280;8915;51.760;14.300;2023-10-08T00:41:48;101169.13;;;11.80;90.83
17593;BME280;8915;51.760;14.300;2023-10-08T00:44:15;101173.19;;;11.77;90.84
17593;BME280;8915;51.760;14.300;2023-10-08T00:46:48;101177.09;;;11.71;90.39
17593;BME280;8915;51.760;14.300;2023-10-08T00:49:15;101175.72;;;11.65;90.85
17593;BME280;8915;51.760;14.300;2023-10-08T00:52:03;101194.41;;;11.60;90.50
17593;BME280;8915;51.760;14.300;2023-10-08T00:54:50;101190.66;;;11.53;91.10
17593;BME280;8915;51.760;14.300;2023-10-08T00:57:30;101177.16;;;11.46;90.45
17593;BME280;8915;51.760;14.300;2023-10-08T01:00:00;101180.13;;;11.44;91.25
17593;BME280;8915;51.760;14.300;2023-10-08T01:02:31;101192.28;;;11.37;91.14
17593;BME280;8915;51.760;14.300;2023-10-08T01:05:10;101195.72;;;11.29;90.60
17593;BME280;8915;51.760;14.300;2023-10-08T01:07:40;101198.97;;;11.26;90.96
17593;BME280;8915;51.760;14.300;2023-10-08T01:10:09;101203.34;;;11.22;90.78
17593;BME280;8915;51.760;14.300;2023-10-08T01:12:38;101207.09;;;11.12;90.53
17593;BME280;8915;51.760;14.300;2023-10-08T01:15:14;101225.75;;;11.07;90.81
17593;BME280;8915;51.760;14.300;2023-10-08T01:17:48;101223.28;;;11.02;90.92
17593;BME280;8915;51.760;14.300;2023-10-08T01:20:22;101214.75;;;10.97;91.00
17593;BME280;8915;51.760;14.300;2023-10-08T01:23:00;101211.47;;;10.91;90.23
17593;BME280;8915;51.760;14.300;2023-10-08T01:25:29;101211.31;;;10.88;90.61
17593;BME280;8915;51.760;14.300;2023-10-08T01:27:55;101210.09;;;10.85;90.63
17593;BME280;8915;51.760;14.300;2023-10-08T01:30:26;101208.84;;;10.83;90.17
17593;BME280;8915;51.760;14.300;2023-10-08T01:32:59;101225.94;;;10.77;90.67
17593;BME280;8915;51.760;14.300;2023-10-08T01:35:28;101238.66;;;10.75;90.65
17593;BME280;8915;51.760;14.300;2023-10-08T01:37:57;101243.78;;;10.71;91.00
17593;BME280;8915;51.760;14.300;2023-10-08T01:40:26;101251.25;;;10.69;91.33
17593;BME280;8915;51.760;14.300;2023-10-08T01:42:54;101249.38;;;10.70;91.57
17593;BME280;8915;51.760;14.300;2023-10-08T01:45:25;101233.53;;;10.70;91.93
17593;BME280;8915;51.760;14.300;2023-10-08T01:47:51;101231.81;;;10.74;92.44
17593;BME280;8915;51.760;14.300;2023-10-08T01:50:20;101229.50;;;10.72;93.24
17593;BME280;8915;51.760;14.300;2023-10-08T01:52:47;101233.88;;;10.77;93.19
17593;BME280;8915;51.760;14.300;2023-10-08T01:55:13;101231.66;;;10.79;94.06
17593;BME280;8915;51.760;14.300;2023-10-08T01:57:44;101251.25;;;10.78;93.01
17593;BME280;8915;51.760;14.300;2023-10-08T02:00:12;101267.56;;;10.80;93.28
17593;BME280;8915;51.760;14.300;2023-10-08T02:02:39;101272.25;;;10.83;93.80
17593;BME280;8915;51.760;14.300;2023-10-08T02:05:06;101282.81;;;10.83;94.06
17593;BME280;8915;51.760;14.300;2023-10-08T02:07:33;101298.66;;;10.83;93.20
17593;BME280;8915;51.760;14.300;2023-10-08T02:09:59;101296.81;;;10.83;94.30
17593;BME280;8915;51.760;14.300;2023-10-08T02:12:26;101296.47;;;10.85;94.44
17593;BME280;8915;51.760;14.300;2023-10-08T02:14:53;101312.31;;;10.85;94.14
17593;BME280;8915;51.760;14.300;2023-10-08T02:17:20;101301.75;;;10.85;92.90
17593;BME280;8915;51.760;14.300;2023-10-08T02:19:47;101308.94;;;10.84;93.33
17593;BME280;8915;51.760;14.300;2023-10-08T02:22:14;101320.25;;;10.85;94.20
17593;BME280;8915;51.760;14.300;2023-10-08T02:24:41;101319.50;;;10.84;93.71
17593;BME280;8915;51.760;14.300;2023-10-08T02:27:08;101321.81;;;10.86;93.84
17593;BME280;8915;51.760;14.300;2023-10-08T02:29:35;101334.25;;;10.85;94.21
17593;BME280;8915;51.760;14.300;2023-10-08T02:32:03;101329.44;;;10.87;94.17
17593;BME280;8915;51.760;14.300;2023-10-08T02:34:30;101324.00;;;10.84;94.49
17593;BME280;8915;51.760;14.300;2023-10-08T02:36:57;101336.91;;;10.85;93.65
17593;BME280;8915;51.760;14.300;2023-10-08T02:39:23;101340.63;;;10.84;94.06
17593;BME280;8915;51.760;14.300;2023-10-08T02:41:51;101356.78;;;10.83;93.83
17593;BME280;8915;51.760;14.300;2023-10-08T02:44:20;101353.69;;;10.81;93.12
17593;BME280;8915;51.760;14.300;2023-10-08T02:46:49;101358.97;;;10.81;93.78
17593;BME280;8915;51.760;14.300;2023-10-08T02:49:18;101351.34;;;10.79;93.56
17593;BME280;8915;51.760;14.300;2023-10-08T02:51:46;101350.22;;;10.72;92.90
17593;BME280;8915;51.760;14.300;2023-10-08T02:54:15;101348.06;;;10.74;93.50
17593;BME280;8915;51.760;14.300;2023-10-08T02:56:44;101360.81;;;10.72;92.73
17593;BME280;8915;51.760;14.300;2023-10-08T02:59:11;101362.94;;;10.70;93.58
17593;BME280;8915;51.760;14.300;2023-10-08T03:01:38;101371.22;;;10.68;93.37
17593;BME280;8915;51.760;14.300;2023-10-08T03:04:06;101378.19;;;10.64;93.21
17593;BME280;8915;51.760;14.300;2023-10-08T03:06:41;101390.59;;;10.64;93.25
17593;BME280;8915;51.760;14.300;2023-10-08T03:09:07;101391.97;;;10.61;93.18
17593;BME280;8915;51.760;14.300;2023-10-08T03:11:34;101398.81;;;10.62;93.27
17593;BME280;8915;51.760;14.300;2023-10-08T03:14:02;101395.72;;;10.60;93.19
17593;BME280;8915;51.760;14.300;2023-10-08T03:16:29;101408.13;;;10.60;93.13
17593;BME280;8915;51.760;14.300;2023-10-08T03:19:00;101410.78;;;10.60;93.29
17593;BME280;8915;51.760;14.300;2023-10-08T03:21:26;101404.22;;;10.57;93.43
17593;BME280;8915;51.760;14.300;2023-10-08T03:24:08;101398.66;;;10.59;94.40
17593;BME280;8915;51.760;14.300;2023-10-08T03:26:49;101384.06;;;10.61;94.07
17593;BME280;8915;51.760;14.300;2023-10-08T03:29:21;101369.31;;;10.60;94.82
17593;BME280;8915;51.760;14.300;2023-10-08T03:31:56;101363.72;;;10.62;94.75
17593;BME280;8915;51.760;14.300;2023-10-08T03:34:23;101364.03;;;10.60;94.23
17593;BME280;8915;51.760;14.300;2023-10-08T03:36:54;101380.66;;;10.61;94.27
17593;BME280;8915;51.760;14.300;2023-10-08T03:39:31;101387.78;;;10.60;94.22
17593;BME280;8915;51.760;14.300;2023-10-08T03:42:19;101392.78;;;10.62;94.53
17593;BME280;8915;51.760;14.300;2023-10-08T03:44:46;101398.06;;;10.62;94.55
17593;BME280;8915;51.760;14.300;2023-10-08T03:47:16;101394.91;;;10.60;94.80
17593;BME280;8915;51.760;14.300;2023-10-08T03:49:44;101387.78;;;10.60;94.49
17593;BME280;8915;51.760;14.300;2023-10-08T03:52:11;101383.28;;;10.61;94.75
17593;BME280;8915;51.760;14.300;2023-10-08T03:54:40;101376.94;;;10.62;94.90
17593;BME280;8915;51.760;14.300;2023-10-08T03:57:13;101376.63;;;10.63;95.30
17593;BME280;8915;51.760;14.300;2023-10-08T03:59:44;101386.69;;;10.61;94.74
17593;BME280;8915;51.760;14.300;2023-10-08T04:02:13;101399.16;;;10.61;95.41
17593;BME280;8915;51.760;14.300;2023-10-08T04:04:47;101405.97;;;10.62;94.44
17593;BME280;8915;51.760;14.300;2023-10-08T04:07:17;101415.75;;;10.61;94.22
17593;BME280;8915;51.760;14.300;2023-10-08T04:10:26;101430.03;;;10.60;94.83
17593;BME280;8915;51.760;14.300;2023-10-08T04:13:15;101435.31;;;10.60;94.36
17593;BME280;8915;51.760;14.300;2023-10-08T04:15:41;101434.25;;;10.61;95.11
17593;BME280;8915;51.760;14.300;2023-10-08T04:18:08;101447.75;;;10.60;94.60
17593;BME280;8915;51.760;14.300;2023-10-08T04:20:35;101448.06;;;10.58;94.56
17593;BME280;8915;51.760;14.300;2023-10-08T04:23:05;101463.13;;;10.58;95.38
17593;BME280;8915;51.760;14.300;2023-10-08T04:25:40;101473.97;;;10.56;94.47
17593;BME280;8915;51.760;14.300;2023-10-08T04:28:08;101478.94;;;10.49;94.46
17593;BME280;8915;51.760;14.300;2023-10-08T04:30:39;101476.16;;;10.54;94.51
17593;BME280;8915;51.760;14.300;2023-10-08T04:33:07;101479.88;;;10.53;95.00
17593;BME280;8915;51.760;14.300;2023-10-08T04:35:38;101484.38;;;10.53;94.96
17593;BME280;8915;51.760;14.300;2023-10-08T04:38:13;101486.25;;;10.52;95.09
17593;BME280;8915;51.760;14.300;2023-10-08T04:40:44;101483.63;;;10.52;94.62
17593;BME280;8915;51.760;14.300;2023-10-08T04:43:14;101481.75;;;10.53;94.87
17593;BME280;8915;51.760;14.300;2023-10-08T04:45:44;101479.09;;;10.53;95.31
17593;BME280;8915;51.760;14.300;2023-10-08T04:48:11;101495.25;;;10.51;94.54
17593;BME280;8915;51.760;14.300;2023-10-08T04:50:44;101505.81;;;10.51;95.28
17593;BME280;8915;51.760;14.300;2023-10-08T04:53:10;101510.16;;;10.47;95.09
17593;BME280;8915;51.760;14.300;2023-10-08T04:55:41;101511.41;;;10.50;94.79
17593;BME280;8915;51.760;14.300;2023-10-08T04:58:14;101530.19;;;10.48;94.61
17593;BME280;8915;51.760;14.300;2023-10-08T05:00:46;101533.91;;;10.47;95.18
17593;BME280;8915;51.760;14.300;2023-10-08T05:03:19;101539.19;;;10.47;95.33
17593;BME280;8915;51.760;14.300;2023-10-08T05:05:48;101536.56;;;10.47;94.79
17593;BME280;8915;51.760;14.300;2023-10-08T05:08:31;101543.69;;;10.47;95.14
17593;BME280;8915;51.760;14.300;2023-10-08T05:11:12;101543.69;;;10.47;94.97
17593;BME280;8915;51.760;14.300;2023-10-08T05:13:50;101545.53;;;10.46;95.30
17593;BME280;8915;51.760;14.300;2023-10-08T05:16:31;101545.53;;;10.46;94.96
17593;BME280;8915;51.760;14.300;2023-10-08T05:19:08;101556.09;;;10.46;95.27
17593;BME280;8915;51.760;14.300;2023-10-08T05:22:11;101552.41;;;10.47;95.72
17593;BME280;8915;51.760;14.300;2023-10-08T05:24:44;101559.22;;;10.48;95.34
17593;BME280;8915;51.760;14.300;2023-10-08T05:27:31;101552.69;;;10.46;95.15
17593;BME280;8915;51.760;14.300;2023-10-08T05:30:06;101564.81;;;10.47;95.57
17593;BME280;8915;51.760;14.300;2023-10-08T05:32:41;101570.56;;;10.49;95.91
17593;BME280;8915;51.760;14.300;2023-10-08T05:35:31;101563.72;;;10.48;95.72
17593;BME280;8915;51.760;14.300;2023-10-08T05:38:15;101575.84;;;10.49;95.86
17593;BME280;8915;51.760;14.300;2023-10-08T05:40:48;101583.00;;;10.48;95.91
17593;BME280;8915;51.760;14.300;2023-10-08T05:43:31;101598.84;;;10.48;95.85
17593;BME280;8915;51.760;14.300;2023-10-08T05:46:15;101608.31;;;10.49;95.83
17593;BME280;8915;51.760;14.300;2023-10-08T05:49:04;101616.53;;;10.48;95.78
17593;BME280;8915;51.760;14.300;2023-10-08T05:51:51;101617.31;;;10.48;95.55
17593;BME280;8915;51.760;14.300;2023-10-08T05:54:39;101620.72;;;10.49;95.59
17593;BME280;8915;51.760;14.300;2023-10-08T05:57:25;101632.09;;;10.49;95.86
17593;BME280;8915;51.760;14.300;2023-10-08T06:00:01;101650.56;;;10.49;95.64
17593;BME280;8915;51.760;14.300;2023-10-08T06:02:42;101647.47;;;10.47;96.30
17593;BME280;8915;51.760;14.300;2023-10-08T06:05:25;101644.03;;;10.47;96.33
17593;BME280;8915;51.760;14.300;2023-10-08T06:07:58;101635.63;;;10.45;95.89
17593;BME280;8915;51.760;14.300;2023-10-08T06:10:37;101639.84;;;10.46;95.66
17593;BME280;8915;51.760;14.300;2023-10-08T06:13:10;101644.31;;;10.45;95.40
17593;BME280;8915;51.760;14.300;2023-10-08T06:15:40;101658.91;;;10.43;95.66
17593;BME280;8915;51.760;14.300;2023-10-08T06:18:14;101661.53;;;10.43;96.02
17593;BME280;8915;51.760;14.300;2023-10-08T06:20:42;101662.63;;;10.42;95.70
17593;BME280;8915;51.760;14.300;2023-10-08T06:23:10;101663.09;;;10.44;96.98
17593;BME280;8915;51.760;14.300;2023-10-08T06:25:38;101667.50;;;10.48;96.49
17593;BME280;8915;51.760;14.300;2023-10-08T06:28:12;101677.94;;;10.53;96.26
17593;BME280;8915;51.760;14.300;2023-10-08T06:30:40;101686.06;;;10.57;96.97
17593;BME280;8915;51.760;14.300;2023-10-08T06:33:07;101700.72;;;10.63;96.70
17593;BME280;8915;51.760;14.300;2023-10-08T06:35:34;101710.38;;;10.67;97.82
17593;BME280;8915;51.760;14.300;2023-10-08T06:38:01;101718.38;;;10.76;97.22
17593;BME280;8915;51.760;14.300;2023-10-08T06:40:33;101728.84;;;10.81;97.04
17593;BME280;8915;51.760;14.300;2023-10-08T06:43:08;101727.94;;;10.85;96.67
17593;BME280;8915;51.760;14.300;2023-10-08T06:45:40;101735.47;;;10.92;96.96
17593;BME280;8915;51.760;14.300;2023-10-08T06:48:07;101751.97;;;10.97;97.24
17593;BME280;8915;51.760;14.300;2023-10-08T06:50:35;101749.72;;;11.04;97.18
17593;BME280;8915;51.760;14.300;2023-10-08T06:53:02;101752.69;;;11.11;96.58
17593;BME280;8915;51.760;14.300;2023-10-08T06:55:33;101763.63;;;11.18;97.46
17593;BME280;8915;51.760;14.300;2023-10-08T06:58:01;101766.66;;;11.25;97.16
17593;BME280;8915;51.760;14.300;2023-10-08T07:00:31;101770.72;;;11.31;97.22
17593;BME280;8915;51.760;14.300;2023-10-08T07:03:08;101755.84;;;11.35;96.01
17593;BME280;8915;51.760;14.300;2023-10-08T07:05:37;101753.81;;;11.41;95.72
17593;BME280;8915;51.760;14.300;2023-10-08T07:08:09;101764.91;;;11.43;94.88
17593;BME280;8915;51.760;14.300;2023-10-08T07:10:39;101773.31;;;11.45;94.84
17593;BME280;8915;51.760;14.300;2023-10-08T07:13:07;101776.41;;;11.47;94.37
17593;BME280;8915;51.760;14.300;2023-10-08T07:15:33;101776.59;;;11.50;94.24
17593;BME280;8915;51.760;14.300;2023-10-08T07:18:04;101779.44;;;11.54;93.56
17593;BME280;8915;51.760;14.300;2023-10-08T07:20:37;101783.34;;;11.56;93.81
17593;BME280;8915;51.760;14.300;2023-10-08T07:23:05;101780.59;;;11.61;94.12
17593;BME280;8915;51.760;14.300;2023-10-08T07:25:37;101785.56;;;11.63;93.04
17593;BME280;8915;51.760;14.300;2023-10-08T07:28:04;101795.84;;;11.64;92.06
17593;BME280;8915;51.760;14.300;2023-10-08T07:30:36;101794.19;;;11.68;92.51
17593;BME280;8915;51.760;14.300;2023-10-08T07:33:05;101793.59;;;11.71;91.83
17593;BME280;8915;51.760;14.300;2023-10-08T07:35:31;101800.91;;;11.74;91.36
17593;BME280;8915;51.760;14.300;2023-10-08T07:38:05;101810.88;;;11.77;91.96
17593;BME280;8915;51.760;14.300;2023-10-08T07:40:35;101815.25;;;11.82;91.42
17593;BME280;8915;51.760;14.300;2023-10-08T07:43:03;101830.06;;;11.83;91.39
17593;BME280;8915;51.760;14.300;2023-10-08T07:45:33;101822.59;;;11.85;91.24
17593;BME280;8915;51.760;14.300;2023-10-08T07:48:00;101824.00;;;11.82;89.93
17593;BME280;8915;51.760;14.300;2023-10-08T07:50:31;101828.03;;;11.80;89.75
17593;BME280;8915;51.760;14.300;2023-10-08T07:52:57;101828.31;;;11.78;90.07
17593;BME280;8915;51.760;14.300;2023-10-08T07:55:25;101834.22;;;11.75;89.84
17593;BME280;8915;51.760;14.300;2023-10-08T07:57:51;101836.69;;;11.72;89.45
17593;BME280;8915;51.760;14.300;2023-10-08T08:00:18;101840.72;;;11.69;89.39
17593;BME280;8915;51.760;14.300;2023-10-08T08:02:48;101849.75;;;11.68;89.68
17593;BME280;8915;51.760;14.300;2023-10-08T08:05:15;101849.44;;;11.70;90.22
17593;BME280;8915;51.760;14.300;2023-10-08T08:07:42;101855.81;;;11.69;89.24
17593;BME280;8915;51.760;14.300;2023-10-08T08:10:11;101862.19;;;11.68;87.87
17593;BME280;8915;51.760;14.300;2023-10-08T08:12:40;101872.47;;;11.69;88.39
17593;BME280;8915;51.760;14.300;2023-10-08T08:15:07;101879.63;;;11.69;87.36
17593;BME280;8915;51.760;14.300;2023-10-08T08:17:40;101876.19;;;11.68;86.90
17593;BME280;8915;51.760;14.300;2023-10-08T08:20:08;101888.34;;;11.69;86.13
17593;BME280;8915;51.760;14.300;2023-10-08T08:22:43;101884.94;;;11.69;86.14
17593;BME280;8915;51.760;14.300;2023-10-08T08:25:15;101880.69;;;11.68;83.91
17593;BME280;8915;51.760;14.300;2023-10-08T08:27:43;101885.69;;;11.69;85.42
17593;BME280;8915;51.760;14.300;2023-10-08T08:30:12;101875.41;;;11.68;83.19
17593;BME280;8915;51.760;14.300;2023-10-08T08:32:41;101874.63;;;11.67;83.19
17593;BME280;8915;51.760;14.300;2023-10-08T08:35:10;101884.94;;;11.69;84.02
17593;BME280;8915;51.760;14.300;2023-10-08T08:37:37;101886.50;;;11.70;84.09
17593;BME280;8915;51.760;14.300;2023-10-08T08:40:06;101895.50;;;11.69;80.12
17593;BME280;8915;51.760;14.300;2023-10-08T08:42:35;101890.97;;;11.69;78.84
17593;BME280;8915;51.760;14.300;2023-10-08T08:45:06;101895.69;;;11.72;79.28
17593;BME280;8915;51.760;14.300;2023-10-08T08:47:37;101891.66;;;11.75;79.32
17593;BME280;8915;51.760;14.300;2023-10-08T08:50:07;101903.97;;;11.79;80.53
17593;BME280;8915;51.760;14.300;2023-10-08T08:52:34;101898.09;;;11.82;80.28
17593;BME280;8915;51.760;14.300;2023-10-08T08:55:02;101910.88;;;11.89;80.74
17593;BME280;8915;51.760;14.300;2023-10-08T08:57:31;101914.50;;;11.93;79.20
17593;BME280;8915;51.760;14.300;2023-10-08T08:59:58;101909.59;;;12.00;77.05
17593;BME280;8915;51.760;14.300;2023-10-08T09:02:26;101924.25;;;12.06;75.99
17593;BME280;8915;51.760;14.300;2023-10-08T09:04:53;101929.44;;;12.11;78.04
17593;BME280;8915;51.760;14.300;2023-10-08T09:07:20;101928.03;;;12.13;76.13
17593;BME280;8915;51.760;14.300;2023-10-08T09:09:48;101925.25;;;12.18;76.51
17593;BME280;8915;51.760;14.300;2023-10-08T09:12:16;101934.94;;;12.23;76.80
17593;BME280;8915;51.760;14.300;2023-10-08T09:14:42;101938.84;;;12.25;80.78
17593;BME280;8915;51.760;14.300;2023-10-08T09:17:10;101939.31;;;12.27;75.64
17593;BME280;8915;51.760;14.300;2023-10-08T09:19:38;101937.94;;;12.30;74.66
17593;BME280;8915;51.760;14.300;2023-10-08T09:22:05;101936.25;;;12.34;76.79
17593;BME280;8915;51.760;14.300;2023-10-08T09:24:33;101939.56;;;12.39;76.48
17593;BME280;8915;51.760;14.300;2023-10-08T09:27:03;101943.59;;;12.37;74.27
17593;BME280;8915;51.760;14.300;2023-10-08T09:29:29;101943.72;;;12.32;74.51
17593;BME280;8915;51.760;14.300;2023-10-08T09:31:57;101946.06;;;12.33;76.50
17593;BME280;8915;51.760;14.300;2023-10-08T09:34:28;101952.13;;;12.34;77.76
17593;BME280;8915;51.760;14.300;2023-10-08T09:36:57;101954.91;;;12.29;77.40
17593;BME280;8915;51.760;14.300;2023-10-08T09:39:26;101950.41;;;12.29;73.50
17593;BME280;8915;51.760;14.300;2023-10-08T09:41:54;101951.97;;;12.30;74.31
17593;BME280;8915;51.760;14.300;2023-10-08T09:44:22;101958.22;;;12.34;76.21
17593;BME280;8915;51.760;14.300;2023-10-08T09:46:52;101958.09;;;12.39;76.05
17593;BME280;8915;51.760;14.300;2023-10-08T09:49:24;101954.22;;;12.45;73.04
17593;BME280;8915;51.760;14.300;2023-10-08T09:51:57;101965.66;;;12.54;77.94
17593;BME280;8915;51.760;14.300;2023-10-08T09:54:28;101963.34;;;12.61;76.61
17593;BME280;8915;51.760;14.300;2023-10-08T09:56:58;101969.78;;;12.69;70.54
17593;BME280;8915;51.760;14.300;2023-10-08T09:59:25;101966.69;;;12.75;70.89
17593;BME280;8915;51.760;14.300;2023-10-08T10:01:54;101966.22;;;12.82;69.56
17593;BME280;8915;51.760;14.300;2023-10-08T10:04:25;101962.38;;;12.88;71.17
17593;BME280;8915;51.760;14.300;2023-10-08T10:06:53;101971.41;;;12.95;67.04
17593;BME280;8915;51.760;14.300;2023-10-08T10:09:25;101977.41;;;13.01;66.17
17593;BME280;8915;51.760;14.300;2023-10-08T10:11:53;101979.44;;;13.04;64.21
17593;BME280;8915;51.760;14.300;2023-10-08T10:14:21;101977.72;;;13.08;71.84
17593;BME280;8915;51.760;14.300;2023-10-08T10:16:49;101984.78;;;13.12;70.54
17593;BME280;8915;51.760;14.300;2023-10-08T10:19:30;101978.53;;;13.17;63.73
17593;BME280;8915;51.760;14.300;2023-10-08T10:21:58;101975.91;;;13.25;67.03
17593;BME280;8915;51.760;14.300;2023-10-08T10:24:32;101989.19;;;13.34;68.99
17593;BME280;8915;51.760;14.300;2023-10-08T10:27:10;101999.97;;;13.37;66.15
17593;BME280;8915;51.760;14.300;2023-10-08T10:29:36;101995.59;;;13.41;73.79
17593;BME280;8915;51.760;14.300;2023-10-08T10:32:03;101994.19;;;13.44;65.58
17593;BME280;8915;51.760;14.300;2023-10-08T10:34:30;101998.28;;;13.50;67.24
17593;BME280;8915;51.760;14.300;2023-10-08T10:37:00;101993.75;;;13.50;62.52
17593;BME280;8915;51.760;14.300;2023-10-08T10:39:35;102002.94;;;13.44;61.01
17593;BME280;8915;51.760;14.300;2023-10-08T10:42:05;102003.56;;;13.41;62.21
17593;BME280;8915;51.760;14.300;2023-10-08T10:44:46;102004.34;;;13.42;63.31
17593;BME280;8915;51.760;14.300;2023-10-08T10:47:15;102002.66;;;13.46;68.71
17593;BME280;8915;51.760;14.300;2023-10-08T10:50:08;102002.50;;;13.51;62.22
17593;BME280;8915;51.760;14.300;2023-10-08T10:52:56;101998.59;;;13.57;71.46
17593;BME280;8915;51.760;14.300;2023-10-08T10:55:24;102003.13;;;13.65;62.64
17593;BME280;8915;51.760;14.300;2023-10-08T10:57:58;101997.84;;;13.73;72.28
17593;BME280;8915;51.760;14.300;2023-10-08T11:00:30;101995.19;;;13.82;59.70
17593;BME280;8915;51.760;14.300;2023-10-08T11:03:22;102002.34;;;13.90;59.30
17593;BME280;8915;51.760;14.300;2023-10-08T11:05:52;101995.78;;;13.96;60.68
17593;BME280;8915;51.760;14.300;2023-10-08T11:08:20;101999.88;;;14.02;61.13
17593;BME280;8915;51.760;14.300;2023-10-08T11:10:49;102007.50;;;14.03;59.36
17593;BME280;8915;51.760;14.300;2023-10-08T11:13:21;102006.59;;;13.99;61.69
17593;BME280;8915;51.760;14.300;2023-10-08T11:15:54;102002.03;;;14.00;56.19
17593;BME280;8915;51.760;14.300;2023-10-08T11:18:24;101998.28;;;14.01;55.17
17593;BME280;8915;51.760;14.300;2023-10-08T11:20:53;101998.47;;;14.04;54.71
17593;BME280;8915;51.760;14.300;2023-10-08T11:23:33;102000.63;;;14.11;53.00
17593;BME280;8915;51.760;14.300;2023-10-08T11:26:03;101998.13;;;14.14;57.34
17593;BME280;8915;51.760;14.300;2023-10-08T11:28:31;102005.16;;;14.19;61.82
17593;BME280;8915;51.760;14.300;2023-10-08T11:30:59;101990.63;;;14.25;59.77
17593;BME280;8915;51.760;14.300;2023-10-08T11:33:34;101996.09;;;14.28;52.95
17593;BME280;8915;51.760;14.300;2023-10-08T11:36:01;101990.03;;;14.28;54.45
17593;BME280;8915;51.760;14.300;2023-10-08T11:38:37;101994.41;;;14.24;57.02
17593;BME280;8915;51.760;14.300;2023-10-08T11:41:11;101985.16;;;14.13;52.99
17593;BME280;8915;51.760;14.300;2023-10-08T11:43:49;101990.34;;;14.09;52.95
17593;BME280;8915;51.760;14.300;2023-10-08T11:46:21;101987.97;;;14.08;57.21
17593;BME280;8915;51.760;14.300;2023-10-08T11:48:47;101987.97;;;14.08;53.76
17593;BME280;8915;51.760;14.300;2023-10-08T11:51:15;101981.13;;;14.07;51.48
17593;BME280;8915;51.760;14.300;2023-10-08T11:53:42;101977.97;;;14.05;49.73
17593;BME280;8915;51.760;14.300;2023-10-08T11:56:11;101988.28;;;14.06;56.85
17593;BME280;8915;51.760;14.300;2023-10-08T11:58:39;101972.03;;;14.08;56.65
17593;BME280;8915;51.760;14.300;2023-10-08T12:01:06;101978.13;;;14.08;57.82
17593;BME280;8915;51.760;14.300;2023-10-08T12:03:32;101978.59;;;14.10;52.47
17593;BME280;8915;51.760;14.300;2023-10-08T12:06:00;101990.34;;;14.09;52.36
17593;BME280;8915;51.760;14.300;2023-10-08T12:08:27;101994.53;;;14.10;50.59
17593;BME280;8915;51.760;14.300;2023-10-08T12:10:54;101989.38;;;14.14;56.46
17593;BME280;8915;51.760;14.300;2023-10-08T12:13:21;101992.50;;;14.16;51.05
17593;BME280;8915;51.760;14.300;2023-10-08T12:15:51;101986.28;;;14.20;49.94
17593;BME280;8915;51.760;14.300;2023-10-08T12:18:17;101993.75;;;14.18;47.73
17593;BME280;8915;51.760;14.300;2023-10-08T12:20:50;101990.00;;;14.19;51.50
17593;BME280;8915;51.760;14.300;2023-10-08T12:23:17;101993.59;;;14.23;51.62
17593;BME280;8915;51.760;14.300;2023-10-08T12:25:50;101993.59;;;14.32;52.64
17593;BME280;8915;51.760;14.300;2023-10-08T12:28:17;101996.25;;;14.40;51.65
17593;BME280;8915;51.760;14.300;2023-10-08T12:30:46;101999.66;;;14.49;52.77
17593;BME280;8915;51.760;14.300;2023-10-08T12:33:14;101996.03;;;14.62;51.03
17593;BME280;8915;51.760;14.300;2023-10-08T12:35:42;101993.34;;;14.71;53.00
17593;BME280;8915;51.760;14.300;2023-10-08T12:38:08;101995.00;;;14.84;54.19
17593;BME280;8915;51.760;14.300;2023-10-08T12:40:35;102000.75;;;14.94;49.72
17593;BME280;8915;51.760;14.300;2023-10-08T12:43:13;101992.09;;;15.06;50.29
17593;BME280;8915;51.760;14.300;2023-10-08T12:45:45;101999.22;;;15.14;50.99
17593;BME280;8915;51.760;14.300;2023-10-08T12:48:18;101999.84;;;15.19;49.75
17593;BME280;8915;51.760;14.300;2023-10-08T12:50:44;101990.75;;;15.20;55.46
17593;BME280;8915;51.760;14.300;2023-10-08T12:53:17;101990.63;;;15.17;48.50
17593;BME280;8915;51.760;14.300;2023-10-08T12:55:43;101989.50;;;15.18;52.58
17593;BME280;8915;51.760;14.300;2023-10-08T12:58:11;101975.59;;;15.21;50.74
17593;BME280;8915;51.760;14.300;2023-10-08T13:00:40;101975.72;;;15.24;48.52
17593;BME280;8915;51.760;14.300;2023-10-08T13:03:08;101962.72;;;15.23;49.69
17593;BME280;8915;51.760;14.300;2023-10-08T13:05:40;101966.50;;;15.22;50.00
17593;BME280;8915;51.760;14.300;2023-10-08T13:08:09;101978.38;;;15.24;48.22
17593;BME280;8915;51.760;14.300;2023-10-08T13:10:38;101971.94;;;15.25;51.03